createdAt,value
2023-04-18T00:02:41.794Z,8.55
2023-04-18T00:08:09.803Z,8.50
2023-04-18T00:13:18.678Z,8.45
2023-04-18T00:18:26.904Z,8.48
2023-04-18T00:23:35.678Z,8.45
2023-04-18T00:28:42.141Z,8.41
2023-04-18T00:33:49.871Z,8.35
2023-04-18T00:38:57.574Z,8.31
2023-04-18T00:44:04.004Z,8.13
2023-04-18T00:49:10.623Z,8.10
2023-04-18T00:54:20.332Z,8.06
2023-04-18T00:59:27.020Z,8.06
2023-04-18T01:04:33.944Z,7.99
2023-04-18T01:09:43.494Z,7.90
2023-04-18T01:14:49.891Z,7.84
2023-04-18T01:19:57.026Z,7.87
2023-04-18T01:25:10.669Z,7.83
2023-04-18T01:30:17.110Z,7.81
2023-04-18T01:35:23.556Z,7.83
2023-04-18T01:40:31.712Z,7.77
2023-04-18T01:45:39.942Z,7.73
2023-04-18T01:50:48.882Z,7.72
2023-04-18T01:55:58.108Z,7.70
2023-04-18T02:01:04.868Z,7.70
2023-04-18T02:06:12.074Z,7.68
2023-04-18T02:11:20.074Z,7.71
2023-04-18T02:16:26.502Z,7.72
2023-04-18T02:21:33.052Z,7.66
2023-04-18T02:26:40.806Z,7.72
2023-04-18T02:31:47.166Z,7.77
2023-04-18T02:36:54.602Z,7.79
2023-04-18T02:42:02.498Z,7.79
2023-04-18T02:47:08.791Z,7.77
2023-04-18T02:52:18.596Z,7.86
2023-04-18T02:57:26.464Z,7.87
2023-04-18T03:02:32.714Z,7.90
2023-04-18T03:07:47.767Z,7.93
2023-04-18T03:12:55.805Z,7.89
2023-04-18T03:18:02.383Z,7.92
2023-04-18T03:23:13.223Z,7.94
2023-04-18T03:28:21.026Z,7.93
2023-04-18T03:33:29.085Z,7.94
2023-04-18T03:38:45.298Z,7.95
2023-04-18T03:43:53.259Z,7.93
2023-04-18T03:48:59.585Z,7.93
2023-04-18T03:54:06.165Z,7.98
2023-04-18T03:59:14.319Z,7.98
2023-04-18T04:04:24.793Z,7.97
2023-04-18T04:09:31.384Z,7.99
2023-04-18T04:14:40.910Z,7.98
2023-04-18T04:19:48.297Z,7.96
2023-04-18T04:24:58.021Z,8.01
2023-04-18T04:30:14.380Z,8.00
2023-04-18T04:35:20.650Z,8.02
2023-04-18T04:40:27.094Z,8.03
2023-04-18T04:45:46.071Z,8.06
2023-04-18T04:50:57.951Z,8.07
2023-04-18T04:56:05.219Z,8.11
2023-04-18T05:01:14.355Z,8.14
2023-04-18T05:06:40.328Z,8.18
2023-04-18T05:11:47.049Z,8.20
2023-04-18T05:16:54.987Z,8.23
2023-04-18T05:22:01.452Z,8.27
2023-04-18T05:27:07.942Z,8.30
2023-04-18T05:32:20.803Z,8.32
2023-04-18T05:37:27.302Z,8.36
2023-04-18T05:42:33.691Z,8.39
2023-04-18T05:47:41.539Z,8.42
2023-04-18T05:52:47.945Z,8.41
2023-04-18T05:57:54.367Z,8.48
2023-04-18T06:03:02.581Z,8.52
2023-04-18T06:08:10.870Z,8.53
2023-04-18T06:13:17.508Z,8.66
2023-04-18T06:18:25.824Z,8.74
2023-04-18T06:23:32.318Z,8.84
2023-04-18T06:28:38.746Z,8.87
2023-04-18T06:33:46.606Z,9.01
2023-04-18T06:38:53.090Z,9.12
2023-04-18T06:44:04.087Z,9.16
2023-04-18T06:49:12.858Z,9.21
2023-04-18T06:54:19.306Z,9.29
2023-04-18T06:59:25.624Z,9.45
2023-04-18T07:04:33.607Z,9.41
2023-04-18T07:09:40.178Z,9.42
2023-04-18T07:14:46.465Z,9.44
2023-04-18T07:19:54.256Z,9.59
2023-04-18T07:25:00.482Z,9.72
2023-04-18T07:30:08.564Z,9.82
2023-04-18T07:35:16.914Z,9.82
2023-04-18T07:40:23.856Z,9.91
2023-04-18T07:45:30.448Z,10.06
2023-04-18T07:50:38.179Z,10.29
2023-04-18T07:55:45.224Z,10.50
2023-04-18T08:00:51.642Z,10.78
2023-04-18T08:05:59.521Z,11.09
2023-04-18T08:11:06.033Z,11.32
2023-04-18T08:16:13.723Z,11.47
2023-04-18T08:21:23.454Z,11.61
2023-04-18T08:26:29.805Z,11.43
2023-04-18T08:31:36.226Z,11.49
2023-04-18T08:36:44.184Z,11.75
2023-04-18T08:41:59.795Z,11.54
2023-04-18T08:47:06.489Z,11.51
2023-04-18T08:52:17.045Z,11.72
2023-04-18T08:57:27.363Z,11.80
2023-04-18T09:02:43.932Z,11.95
2023-04-18T09:08:26.126Z,11.92
2023-04-18T09:13:46.645Z,12.27
2023-04-18T09:19:14.276Z,12.70
2023-04-18T09:24:26.786Z,12.89
2023-04-18T09:29:47.896Z,13.33
2023-04-18T09:34:58.539Z,13.22
2023-04-18T09:40:19.691Z,13.17
2023-04-18T09:45:27.611Z,12.92
2023-04-18T09:50:36.211Z,12.86
2023-04-18T09:55:45.328Z,12.78
2023-04-18T10:00:53.031Z,12.60
2023-04-18T10:05:59.699Z,12.60
2023-04-18T10:11:07.864Z,12.52
2023-04-18T10:16:14.765Z,12.67
2023-04-18T10:21:21.032Z,12.85
2023-04-18T10:26:50.594Z,12.99
2023-04-18T10:31:57.164Z,13.13
2023-04-18T10:37:07.750Z,13.14
2023-04-18T10:42:15.600Z,13.26
2023-04-18T10:47:25.088Z,13.48
2023-04-18T10:52:31.991Z,13.79
2023-04-18T10:57:47.594Z,14.04
2023-04-18T11:02:58.097Z,14.18
2023-04-18T11:08:04.926Z,14.27
2023-04-18T11:13:12.632Z,14.47
2023-04-18T11:18:19.141Z,14.58
2023-04-18T11:23:25.899Z,14.53
2023-04-18T11:28:33.971Z,14.40
2023-04-18T11:33:40.458Z,14.34
2023-04-18T11:38:46.895Z,14.27
2023-04-18T11:43:54.802Z,14.04
2023-04-18T11:49:01.077Z,13.97
2023-04-18T11:54:07.733Z,14.03
2023-04-18T11:59:15.758Z,14.08
2023-04-18T12:04:22.529Z,14.24
2023-04-18T12:09:29.359Z,14.19
2023-04-18T12:14:38.246Z,14.28
2023-04-18T12:19:48.010Z,14.32
2023-04-18T12:25:24.341Z,14.66
2023-04-18T12:30:37.733Z,14.73
2023-04-18T12:35:44.479Z,14.73
2023-04-18T12:40:51.448Z,14.83
2023-04-18T12:45:59.849Z,14.74
2023-04-18T12:51:12.254Z,14.73
2023-04-18T12:56:19.235Z,14.75
2023-04-18T13:01:28.065Z,14.77
2023-04-18T13:06:34.829Z,14.70
2023-04-18T13:11:41.602Z,14.69
2023-04-18T13:16:49.915Z,14.69
2023-04-18T13:21:57.143Z,-146.03
2023-04-18T13:27:10.503Z,-146.03
2023-04-18T13:32:18.646Z,-146.03
2023-04-18T13:37:25.785Z,-146.03
2023-04-18T13:42:34.290Z,-146.03
2023-04-18T13:47:42.236Z,-146.03
2023-04-18T13:52:49.672Z,-146.03
2023-04-18T13:57:56.141Z,-146.03
2023-04-18T14:03:04.223Z,-146.03
2023-04-18T14:08:10.779Z,-146.03
2023-04-18T14:13:17.047Z,-146.03
2023-04-18T14:18:25.036Z,-146.03
2023-04-18T14:23:31.388Z,-146.03
2023-04-18T14:28:37.680Z,-146.03
2023-04-18T14:33:45.532Z,-146.03
2023-04-18T14:38:51.772Z,-146.03
2023-04-18T14:43:58.122Z,-146.03
2023-04-18T14:49:05.984Z,-146.03
2023-04-18T14:54:12.465Z,-146.03
2023-04-18T14:59:19.148Z,-146.03
2023-04-18T15:04:27.676Z,-146.03
2023-04-18T15:09:38.432Z,-146.03
2023-04-18T15:14:45.065Z,-146.03
2023-04-18T15:19:52.980Z,-146.03
2023-04-18T15:24:59.391Z,-146.03
2023-04-18T15:30:06.350Z,-146.03
2023-04-18T15:35:14.621Z,-146.03
2023-04-18T15:40:21.368Z,-146.03
2023-04-18T15:45:27.644Z,-146.03
2023-04-18T15:50:35.379Z,-146.03
2023-04-18T15:55:41.753Z,-146.03
2023-04-18T16:00:48.299Z,-146.03
2023-04-18T16:05:56.176Z,-146.03
2023-04-18T16:11:02.702Z,-146.03
2023-04-18T16:16:09.793Z,-146.03
2023-04-18T16:21:17.930Z,-146.03
2023-04-18T16:26:25.702Z,-146.03
2023-04-18T16:31:32.137Z,-146.03
2023-04-18T16:36:40.687Z,-146.03
2023-04-18T16:41:47.221Z,-146.03
2023-04-18T16:46:53.776Z,-146.03
2023-04-18T16:52:02.226Z,-146.03
2023-04-18T16:57:09.180Z,-146.03
2023-04-18T17:02:16.628Z,-146.03
2023-04-18T17:07:24.872Z,-146.03
2023-04-18T17:12:31.921Z,-146.03
2023-04-18T17:17:39.025Z,-146.03
2023-04-18T17:22:47.084Z,-146.03
2023-04-18T17:27:54.262Z,-146.03
2023-04-18T17:33:01.596Z,-146.03
2023-04-18T17:38:10.944Z,-146.03
2023-04-18T17:43:19.454Z,-146.03
2023-04-18T17:48:26.744Z,-146.03
2023-04-18T17:53:37.299Z,-146.03
2023-04-18T17:58:48.645Z,-146.03
2023-04-18T18:03:57.123Z,-146.03
2023-04-18T18:09:07.126Z,-146.03
2023-04-18T18:14:15.521Z,-146.03
2023-04-18T18:19:24.558Z,-146.03
2023-04-18T18:24:34.611Z,-146.03
2023-04-18T18:29:43.946Z,-146.03
2023-04-18T18:34:51.930Z,-146.03
2023-04-18T18:40:08.186Z,-146.03
2023-04-18T18:45:17.631Z,-146.03
2023-04-18T18:50:26.986Z,-146.03
2023-04-18T18:55:37.024Z,-146.03
2023-04-18T19:00:56.018Z,-146.03
2023-04-18T19:06:06.288Z,12.33
2023-04-18T19:11:17.164Z,12.21
2023-04-18T19:16:27.699Z,12.14
2023-04-18T19:21:36.716Z,12.04
2023-04-18T19:26:44.917Z,11.95
2023-04-18T19:31:55.493Z,11.89
2023-04-18T19:37:05.050Z,11.82
2023-04-18T19:42:13.895Z,11.72
2023-04-18T19:47:22.522Z,11.64
2023-04-18T19:52:31.413Z,11.59
2023-04-18T19:57:43.613Z,11.57
2023-04-18T20:02:58.857Z,11.49
2023-04-18T20:08:08.639Z,11.40
2023-04-18T20:13:17.904Z,11.37
2023-04-18T20:18:26.599Z,11.33
2023-04-18T20:23:35.950Z,11.30
2023-04-18T20:28:47.684Z,11.24
2023-04-18T20:33:56.178Z,11.26
2023-04-18T20:39:04.227Z,11.18
2023-04-18T20:44:14.403Z,11.13
2023-04-18T20:49:21.712Z,11.09
2023-04-18T20:54:29.246Z,11.03
2023-04-18T20:59:38.226Z,10.98
2023-04-18T21:04:47.050Z,11.01
2023-04-18T21:09:53.650Z,10.91
2023-04-18T21:15:01.829Z,10.87
2023-04-18T21:20:11.914Z,10.79
2023-04-18T21:25:19.957Z,10.79
2023-04-18T21:30:28.844Z,10.74
2023-04-18T21:35:35.444Z,10.75
2023-04-18T21:40:41.836Z,10.64
2023-04-18T21:45:50.533Z,10.44
2023-04-18T21:50:57.480Z,10.39
2023-04-18T21:56:03.901Z,10.28
2023-04-18T22:01:12.033Z,10.18
2023-04-18T22:06:19.000Z,10.08
2023-04-18T22:11:27.376Z,10.02
2023-04-18T22:16:35.301Z,9.99
2023-04-18T22:21:41.762Z,9.97
2023-04-18T22:26:48.154Z,9.92
2023-04-18T22:31:56.199Z,9.90
2023-04-18T22:37:02.495Z,9.88
2023-04-18T22:42:09.404Z,9.77
2023-04-18T22:47:17.581Z,9.67
2023-04-18T22:52:25.311Z,9.51
2023-04-18T22:57:31.593Z,9.45
2023-04-18T23:02:39.911Z,9.37
2023-04-18T23:07:46.684Z,9.35
2023-04-18T23:12:54.261Z,9.34
2023-04-18T23:18:02.073Z,9.26
2023-04-18T23:23:08.405Z,9.26
2023-04-18T23:28:15.035Z,9.05
2023-04-18T23:33:23.014Z,9.02
2023-04-18T23:38:29.766Z,8.87
2023-04-18T23:43:36.774Z,8.76
2023-04-18T23:48:44.769Z,8.71
2023-04-18T23:53:51.198Z,8.58
2023-04-18T23:59:00.800Z,8.48
